createdAt,value
2023-01-25T00:01:23.791Z,2.00
2023-01-25T00:03:52.609Z,1.93
2023-01-25T00:06:21.176Z,2.00
2023-01-25T00:08:53.352Z,1.91
2023-01-25T00:11:22.385Z,1.82
2023-01-25T00:13:55.313Z,1.90
2023-01-25T00:16:25.329Z,1.96
2023-01-25T00:18:54.041Z,1.98
2023-01-25T00:21:24.673Z,1.85
2023-01-25T00:23:54.007Z,1.92
2023-01-25T00:26:22.806Z,1.97
2023-01-25T00:28:55.438Z,2.03
2023-01-25T00:31:29.986Z,1.95
2023-01-25T00:34:04.197Z,1.87
2023-01-25T00:36:41.760Z,1.80
2023-01-25T00:39:13.290Z,1.84
2023-01-25T00:41:42.306Z,1.71
2023-01-25T00:44:11.005Z,1.69
2023-01-25T00:46:40.666Z,1.79
2023-01-25T00:49:10.795Z,1.80
2023-01-25T00:51:39.507Z,1.86
2023-01-25T00:54:08.074Z,1.87
2023-01-25T00:56:36.757Z,1.91
2023-01-25T00:59:05.945Z,1.87
2023-01-25T01:01:36.038Z,1.72
2023-01-25T01:04:06.535Z,1.79
2023-01-25T01:06:37.261Z,1.90
2023-01-25T01:09:08.508Z,1.80
2023-01-25T01:11:37.205Z,1.77
2023-01-25T01:14:06.047Z,1.79
2023-01-25T01:16:34.864Z,1.80
2023-01-25T01:19:04.076Z,1.77
2023-01-25T01:21:32.884Z,1.68
2023-01-25T01:24:03.058Z,1.74
2023-01-25T01:26:31.695Z,1.70
2023-01-25T01:29:00.748Z,1.64
2023-01-25T01:31:29.562Z,1.57
2023-01-25T01:33:59.468Z,1.63
2023-01-25T01:36:31.833Z,1.82
2023-01-25T01:39:01.281Z,1.76
2023-01-25T01:41:30.299Z,1.78
2023-01-25T01:44:01.887Z,1.81
2023-01-25T01:46:37.598Z,1.85
2023-01-25T01:49:21.528Z,1.85
2023-01-25T01:52:11.317Z,1.74
2023-01-25T01:54:45.639Z,1.83
2023-01-25T01:57:23.195Z,1.84
2023-01-25T02:00:12.885Z,1.79
2023-01-25T02:02:45.921Z,1.84
2023-01-25T02:05:17.796Z,1.78
2023-01-25T02:07:52.208Z,1.85
2023-01-25T02:10:23.258Z,1.85
2023-01-25T02:12:54.703Z,1.81
2023-01-25T02:15:23.409Z,1.69
2023-01-25T02:17:55.487Z,1.64
2023-01-25T02:20:31.865Z,1.62
2023-01-25T02:23:21.786Z,1.68
2023-01-25T02:25:55.672Z,1.81
2023-01-25T02:28:44.985Z,1.76
2023-01-25T02:31:15.738Z,1.83
2023-01-25T02:33:45.027Z,1.80
2023-01-25T02:36:30.960Z,1.69
2023-01-25T02:39:05.261Z,1.50
2023-01-25T02:41:51.225Z,1.45
2023-01-25T02:44:28.605Z,1.42
2023-01-25T02:47:08.577Z,1.27
2023-01-25T02:49:43.597Z,1.17
2023-01-25T02:52:12.231Z,1.18
2023-01-25T02:54:41.022Z,1.13
2023-01-25T02:57:13.622Z,1.06
2023-01-25T02:59:42.338Z,0.69
2023-01-25T03:02:10.889Z,0.73
2023-01-25T03:04:39.481Z,0.69
2023-01-25T03:07:08.145Z,0.74
2023-01-25T03:09:36.892Z,0.76
2023-01-25T03:12:05.765Z,0.92
2023-01-25T03:14:34.373Z,0.98
2023-01-25T03:17:03.220Z,1.11
2023-01-25T03:19:32.015Z,1.20
2023-01-25T03:22:00.746Z,1.19
2023-01-25T03:24:30.025Z,1.12
2023-01-25T03:27:10.999Z,1.34
2023-01-25T03:29:40.180Z,1.39
2023-01-25T03:32:09.157Z,1.39
2023-01-25T03:34:38.149Z,1.21
2023-01-25T03:37:07.140Z,1.17
2023-01-25T03:39:36.185Z,1.12
2023-01-25T03:42:05.059Z,1.16
2023-01-25T03:44:33.780Z,1.29
2023-01-25T03:47:02.577Z,1.42
2023-01-25T03:49:31.474Z,1.08
2023-01-25T03:52:00.054Z,0.99
2023-01-25T03:54:31.236Z,0.90
2023-01-25T03:56:59.810Z,1.14
2023-01-25T03:59:28.411Z,1.15
2023-01-25T04:01:57.208Z,1.40
2023-01-25T04:04:25.758Z,1.53
2023-01-25T04:06:54.465Z,1.47
2023-01-25T04:09:23.817Z,1.56
2023-01-25T04:11:53.090Z,1.62
2023-01-25T04:14:34.991Z,1.64
2023-01-25T04:16:55.634Z,1.51
2023-01-25T04:19:30.138Z,1.63
2023-01-25T04:21:58.637Z,1.66
2023-01-25T04:24:27.332Z,1.71
2023-01-25T04:27:00.282Z,1.63
2023-01-25T04:29:40.560Z,1.73
2023-01-25T04:31:59.307Z,1.70
2023-01-25T04:34:28.263Z,1.66
2023-01-25T04:36:58.372Z,1.61
2023-01-25T04:39:27.013Z,1.58
2023-01-25T04:41:58.410Z,1.71
2023-01-25T04:44:26.874Z,1.73
2023-01-25T04:46:56.594Z,1.67
2023-01-25T04:49:25.292Z,1.63
2023-01-25T04:51:54.130Z,1.59
2023-01-25T04:54:24.544Z,1.59
2023-01-25T04:56:53.171Z,1.61
2023-01-25T04:59:21.828Z,1.59
2023-01-25T05:01:50.449Z,1.55
2023-01-25T05:04:23.639Z,1.67
2023-01-25T05:06:49.722Z,1.62
2023-01-25T05:09:18.541Z,1.60
2023-01-25T05:11:47.155Z,1.68
2023-01-25T05:14:15.800Z,1.66
2023-01-25T05:16:44.581Z,1.63
2023-01-25T05:19:13.361Z,1.59
2023-01-25T05:22:00.761Z,1.56
2023-01-25T05:24:32.402Z,1.63
2023-01-25T05:27:01.402Z,1.63
2023-01-25T05:29:36.045Z,1.77
2023-01-25T05:32:07.651Z,1.74
2023-01-25T05:34:36.932Z,1.55
2023-01-25T05:37:07.776Z,1.61
2023-01-25T05:39:39.423Z,1.52
2023-01-25T05:42:16.991Z,1.55
2023-01-25T05:44:48.090Z,1.60
2023-01-25T05:47:18.982Z,1.59
2023-01-25T05:49:49.420Z,1.40
2023-01-25T05:52:18.914Z,1.50
2023-01-25T05:54:47.710Z,1.63
2023-01-25T05:57:16.840Z,1.63
2023-01-25T05:59:45.634Z,1.62
2023-01-25T06:02:14.473Z,1.70
2023-01-25T06:04:43.649Z,1.73
2023-01-25T06:07:12.699Z,1.73
2023-01-25T06:09:41.769Z,1.68
2023-01-25T06:12:13.077Z,1.70
2023-01-25T06:14:43.551Z,1.57
2023-01-25T06:17:12.217Z,1.57
2023-01-25T06:19:41.284Z,1.67
2023-01-25T06:22:10.714Z,1.61
2023-01-25T06:24:39.318Z,1.87
2023-01-25T06:27:08.682Z,1.83
2023-01-25T06:29:37.362Z,1.71
2023-01-25T06:32:07.615Z,1.80
2023-01-25T06:34:36.377Z,1.75
2023-01-25T06:37:05.086Z,1.70
2023-01-25T06:39:33.708Z,1.71
2023-01-25T06:42:02.372Z,1.76
2023-01-25T06:44:31.751Z,1.68
2023-01-25T06:47:00.302Z,1.83
2023-01-25T06:49:30.800Z,1.82
2023-01-25T06:52:08.803Z,1.77
2023-01-25T06:54:38.227Z,1.83
2023-01-25T06:57:11.837Z,1.73
2023-01-25T06:59:42.269Z,1.78
2023-01-25T07:02:21.000Z,1.84
2023-01-25T07:04:53.138Z,1.68
2023-01-25T07:07:22.234Z,1.67
2023-01-25T07:09:50.929Z,1.69
2023-01-25T07:12:20.491Z,1.67
2023-01-25T07:14:52.517Z,1.58
2023-01-25T07:17:21.143Z,1.60
2023-01-25T07:19:49.649Z,1.88
2023-01-25T07:22:18.380Z,1.77
2023-01-25T07:24:48.800Z,1.91
2023-01-25T07:27:18.361Z,1.79
2023-01-25T07:29:47.179Z,1.83
2023-01-25T07:32:16.144Z,1.94
2023-01-25T07:34:45.046Z,2.15
2023-01-25T07:37:13.763Z,2.31
2023-01-25T07:39:46.839Z,2.19
2023-01-25T07:42:15.195Z,2.06
2023-01-25T07:44:43.848Z,2.04
2023-01-25T07:47:12.791Z,2.00
2023-01-25T07:49:41.497Z,2.14
2023-01-25T07:52:10.004Z,2.19
2023-01-25T07:54:38.591Z,2.08
2023-01-25T07:57:07.224Z,2.11
2023-01-25T07:59:35.978Z,2.06
2023-01-25T08:02:05.105Z,2.12
2023-01-25T08:04:33.772Z,2.17
2023-01-25T08:07:02.488Z,2.37
2023-01-25T08:09:31.119Z,2.22
2023-01-25T08:11:59.957Z,2.15
2023-01-25T08:14:28.633Z,2.06
2023-01-25T08:16:57.192Z,1.86
2023-01-25T08:19:34.429Z,1.85
2023-01-25T08:21:59.509Z,1.88
2023-01-25T08:24:28.250Z,2.06
2023-01-25T08:26:59.981Z,2.06
2023-01-25T08:29:48.998Z,2.04
2023-01-25T08:32:24.937Z,2.20
2023-01-25T08:34:53.622Z,2.14
2023-01-25T08:37:23.723Z,2.35
2023-01-25T08:39:52.299Z,2.11
2023-01-25T08:42:22.580Z,2.10
2023-01-25T08:44:51.331Z,2.26
2023-01-25T08:47:19.953Z,2.13
2023-01-25T08:49:48.566Z,2.60
2023-01-25T08:52:17.235Z,2.58
2023-01-25T08:54:45.908Z,2.56
2023-01-25T08:57:14.869Z,2.67
2023-01-25T08:59:45.050Z,2.65
2023-01-25T09:02:14.106Z,2.59
2023-01-25T09:04:42.845Z,2.60
2023-01-25T09:07:12.954Z,2.53
2023-01-25T09:09:43.213Z,2.35
2023-01-25T09:12:11.963Z,2.31
2023-01-25T09:14:40.759Z,2.41
2023-01-25T09:17:10.515Z,2.42
2023-01-25T09:19:39.180Z,2.55
2023-01-25T09:22:07.900Z,2.59
2023-01-25T09:24:37.431Z,2.53
2023-01-25T09:30:23.478Z,2.34
2023-01-25T09:32:50.470Z,2.24
2023-01-25T09:35:21.797Z,2.43
2023-01-25T09:37:53.847Z,2.57
2023-01-25T09:40:26.995Z,2.74
2023-01-25T09:43:03.270Z,2.90
2023-01-25T09:45:37.275Z,3.14
2023-01-25T09:48:14.891Z,2.98
2023-01-25T09:51:09.277Z,3.08
2023-01-25T09:53:43.490Z,3.08
2023-01-25T09:56:20.710Z,2.95
2023-01-25T09:58:49.762Z,2.79
2023-01-25T10:01:36.981Z,2.72
2023-01-25T10:04:16.654Z,3.01
2023-01-25T10:06:58.904Z,3.00
2023-01-25T10:09:35.223Z,3.28
2023-01-25T10:12:18.807Z,3.09
2023-01-25T10:14:47.563Z,3.27
2023-01-25T10:17:27.056Z,3.69
2023-01-25T10:20:15.308Z,3.85
2023-01-25T10:22:55.992Z,3.98
2023-01-25T10:25:46.223Z,4.22
2023-01-25T10:28:35.300Z,4.20
2023-01-25T10:34:47.060Z,4.26
2023-01-25T10:37:15.499Z,4.31
2023-01-25T10:39:48.935Z,3.98
2023-01-25T10:42:19.776Z,3.72
2023-01-25T10:44:48.454Z,3.53
2023-01-25T10:47:26.374Z,3.89
2023-01-25T10:50:02.881Z,3.78
2023-01-25T10:52:35.617Z,3.81
2023-01-25T10:55:26.339Z,3.95
2023-01-25T10:58:00.666Z,4.38
2023-01-25T11:00:45.393Z,4.49
2023-01-25T11:03:28.096Z,3.97
2023-01-25T11:05:59.544Z,4.19
2023-01-25T11:08:34.052Z,4.19
2023-01-25T11:11:09.912Z,4.48
2023-01-25T11:13:42.568Z,4.48
2023-01-25T11:16:41.460Z,4.71
2023-01-25T11:19:35.560Z,4.97
2023-01-25T11:22:07.455Z,4.59
2023-01-25T11:24:40.900Z,4.64
2023-01-25T11:27:17.244Z,4.62
2023-01-25T11:29:52.252Z,4.42
2023-01-25T11:32:32.189Z,4.50
2023-01-25T11:35:01.610Z,4.46
2023-01-25T11:37:33.305Z,4.41
2023-01-25T11:40:16.587Z,4.03
2023-01-25T11:42:58.398Z,3.83
2023-01-25T11:45:32.757Z,3.77
2023-01-25T11:51:46.504Z,4.05
2023-01-25T11:54:54.309Z,3.98
2023-01-25T11:57:31.902Z,3.98
2023-01-25T12:00:10.394Z,4.26
2023-01-25T12:02:50.731Z,4.10
2023-01-25T12:13:26.543Z,4.04
2023-01-25T12:25:57.949Z,3.65
2023-01-25T12:52:25.955Z,3.58
2023-01-25T12:54:58.182Z,3.49
2023-01-25T12:57:29.972Z,3.75
2023-01-25T13:00:11.037Z,3.77
2023-01-25T13:02:52.923Z,4.03
2023-01-25T13:05:39.406Z,3.83
2023-01-25T13:08:31.884Z,3.73
2023-01-25T13:11:08.146Z,4.09
2023-01-25T13:13:36.887Z,3.76
2023-01-25T13:16:32.953Z,3.55
2023-01-25T13:19:03.735Z,3.75
2023-01-25T13:21:47.070Z,4.04
2023-01-25T13:24:24.850Z,3.96
2023-01-25T13:26:58.483Z,4.14
2023-01-25T13:29:39.926Z,4.07
2023-01-25T13:32:17.395Z,3.76
2023-01-25T13:34:55.035Z,3.98
2023-01-25T13:37:34.657Z,3.72
2023-01-25T13:40:38.173Z,3.60
2023-01-25T13:43:20.914Z,3.62
2023-01-25T13:45:53.038Z,3.44
2023-01-25T13:48:27.862Z,3.55
2023-01-25T13:51:08.493Z,3.47
2023-01-25T13:53:38.864Z,2.96
2023-01-25T13:56:10.617Z,2.89
2023-01-25T13:58:42.270Z,2.92
2023-01-25T14:01:23.204Z,2.81
2023-01-25T14:03:55.188Z,2.79
2023-01-25T14:06:32.962Z,2.90
2023-01-25T14:09:09.083Z,2.79
2023-01-25T14:11:42.370Z,2.80
2023-01-25T14:14:31.491Z,2.87
2023-01-25T14:17:21.164Z,2.81
2023-01-25T14:19:52.850Z,2.76
2023-01-25T14:22:35.327Z,2.59
2023-01-25T14:25:15.848Z,2.63
2023-01-25T14:27:49.780Z,2.46
2023-01-25T14:30:27.416Z,2.48
2023-01-25T14:32:59.012Z,2.44
2023-01-25T14:35:54.317Z,2.28
2023-01-25T14:41:17.584Z,2.19
2023-01-25T14:43:49.097Z,2.10
2023-01-25T14:46:26.801Z,2.03
2023-01-25T14:49:17.959Z,2.11
2023-01-25T14:51:49.681Z,2.00
2023-01-25T14:54:27.095Z,1.95
2023-01-25T14:57:01.632Z,1.80
2023-01-25T14:59:45.380Z,1.63
2023-01-25T15:02:50.806Z,1.75
2023-01-25T15:05:23.985Z,1.72
2023-01-25T15:07:57.952Z,1.77
2023-01-25T15:10:29.137Z,1.75
2023-01-25T15:13:20.560Z,1.63
2023-01-25T15:16:06.943Z,1.63
2023-01-25T15:18:56.881Z,1.68
2023-01-25T15:21:34.609Z,1.58
2023-01-25T15:24:14.781Z,1.55
2023-01-25T15:29:53.949Z,1.52
2023-01-25T15:32:23.237Z,1.42
2023-01-25T15:34:52.159Z,1.40
2023-01-25T15:37:23.668Z,1.44
2023-01-25T15:39:57.563Z,1.50
2023-01-25T15:42:26.385Z,1.48
2023-01-25T15:44:56.066Z,1.53
2023-01-25T15:47:24.963Z,1.52
2023-01-25T15:49:54.079Z,1.48
2023-01-25T15:52:22.775Z,1.38
2023-01-25T15:55:08.483Z,1.41
2023-01-25T15:57:44.979Z,1.48
2023-01-25T16:00:23.585Z,1.48
2023-01-25T16:02:54.956Z,1.39
2023-01-25T16:05:23.543Z,1.25
2023-01-25T16:07:52.304Z,1.32
2023-01-25T16:10:23.809Z,1.31
2023-01-25T16:12:52.723Z,1.29
2023-01-25T16:15:21.421Z,1.33
2023-01-25T16:17:50.069Z,1.23
2023-01-25T16:20:21.251Z,1.18
2023-01-25T16:22:49.843Z,1.29
2023-01-25T16:25:21.873Z,1.36
2023-01-25T16:27:51.341Z,1.42
2023-01-25T16:30:24.081Z,1.40
2023-01-25T16:32:53.293Z,1.35
2023-01-25T16:35:22.178Z,1.34
2023-01-25T16:37:54.190Z,1.25
2023-01-25T16:40:33.497Z,1.20
2023-01-25T16:43:02.093Z,1.19
2023-01-25T16:45:31.595Z,1.18
2023-01-25T16:48:01.929Z,1.31
2023-01-25T16:50:30.694Z,1.32
2023-01-25T16:53:00.153Z,1.30
2023-01-25T16:55:29.179Z,1.29
2023-01-25T16:57:57.980Z,1.24
2023-01-25T17:00:26.707Z,1.08
2023-01-25T17:02:59.716Z,1.22
2023-01-25T17:05:27.378Z,1.32
2023-01-25T17:07:56.229Z,1.33
2023-01-25T17:10:30.751Z,1.26
2023-01-25T17:12:59.510Z,1.32
2023-01-25T17:15:28.365Z,1.28
2023-01-25T17:17:57.091Z,1.14
2023-01-25T17:20:25.736Z,1.18
2023-01-25T17:23:00.630Z,1.20
2023-01-25T17:25:31.036Z,1.20
2023-01-25T17:27:59.830Z,1.11
2023-01-25T17:30:28.680Z,1.14
2023-01-25T17:36:20.714Z,1.12
2023-01-25T17:48:17.142Z,0.89
2023-01-25T17:50:58.776Z,0.76
2023-01-25T17:53:28.394Z,0.72
2023-01-25T17:56:21.317Z,0.79
2023-01-25T17:59:33.081Z,0.87
2023-01-25T18:01:46.276Z,0.93
2023-01-25T18:04:20.531Z,0.91
2023-01-25T18:06:57.455Z,0.96
2023-01-25T18:09:43.729Z,0.83
2023-01-25T18:12:22.877Z,0.77
2023-01-25T18:14:53.068Z,0.75
2023-01-25T18:17:58.773Z,0.60
2023-01-25T18:20:05.964Z,0.50
2023-01-25T18:26:03.188Z,0.49
2023-01-25T18:28:44.067Z,0.54
2023-01-25T18:31:16.063Z,0.58
2023-01-25T18:33:45.545Z,0.61
2023-01-25T19:54:19.829Z,1.17
2023-01-25T19:56:57.327Z,0.96
2023-01-25T19:59:29.890Z,0.87
2023-01-25T20:02:03.972Z,0.74
2023-01-25T20:04:32.893Z,0.72
2023-01-25T20:07:01.498Z,0.78
2023-01-25T20:09:32.571Z,0.69
2023-01-25T20:12:03.185Z,0.65
2023-01-25T20:14:32.169Z,0.54
2023-01-25T20:17:00.893Z,0.59
2023-01-25T20:19:30.447Z,0.57
2023-01-25T20:22:00.487Z,0.44
2023-01-25T20:24:51.472Z,0.45
2023-01-25T20:27:20.117Z,0.48
2023-01-25T20:29:50.295Z,0.40
2023-01-25T20:32:31.798Z,0.47
2023-01-25T20:34:49.451Z,0.47
2023-01-25T20:37:24.369Z,0.39
2023-01-25T20:39:59.635Z,0.40
2023-01-25T20:42:30.154Z,0.32
2023-01-25T20:45:19.529Z,0.41
2023-01-25T20:47:52.118Z,0.33
2023-01-25T20:50:24.702Z,0.17
2023-01-25T20:52:53.462Z,0.31
2023-01-25T20:55:22.167Z,0.37
2023-01-25T20:57:57.002Z,0.29
2023-01-25T21:00:25.931Z,0.20
2023-01-25T21:02:54.628Z,0.21
2023-01-25T21:05:23.330Z,0.22
2023-01-25T21:07:52.025Z,0.28
2023-01-25T21:10:20.807Z,0.33
2023-01-25T21:12:49.546Z,0.25
2023-01-25T21:15:18.327Z,0.32
2023-01-25T21:17:56.605Z,0.42
2023-01-25T21:20:24.847Z,0.46
2023-01-25T21:22:53.625Z,0.32
2023-01-25T21:25:22.323Z,0.35
2023-01-25T21:27:50.984Z,0.43
2023-01-25T21:30:22.459Z,0.38
2023-01-25T21:32:50.671Z,0.28
2023-01-25T21:35:19.346Z,0.41
2023-01-25T21:37:51.312Z,0.40
2023-01-25T21:40:20.696Z,0.28
2023-01-25T21:42:49.380Z,0.35
2023-01-25T21:45:36.038Z,0.32
2023-01-25T21:48:04.765Z,0.37
2023-01-25T21:50:56.292Z,0.30
2023-01-25T21:53:25.039Z,0.30
2023-01-25T21:55:57.766Z,0.28
2023-01-25T21:58:32.279Z,0.17
2023-01-25T22:01:04.795Z,0.20
2023-01-25T22:03:47.862Z,0.14
2023-01-25T22:06:28.560Z,0.18
2023-01-25T22:12:32.847Z,0.19
2023-01-25T22:15:02.095Z,0.34
2023-01-25T22:17:31.125Z,0.31
2023-01-25T22:20:03.319Z,0.21
2023-01-25T22:22:32.156Z,-0.05
2023-01-25T22:25:00.748Z,-0.05
2023-01-25T22:27:43.315Z,-0.03
2023-01-25T22:30:45.165Z,0.01
2023-01-25T22:32:45.370Z,0.01
2023-01-25T22:35:26.562Z,0.04
2023-01-25T22:38:03.556Z,-0.04
2023-01-25T22:40:34.338Z,0.03
2023-01-25T22:43:03.050Z,-0.01
2023-01-25T22:45:31.732Z,-0.06
2023-01-25T22:48:00.392Z,-0.18
2023-01-25T22:50:29.107Z,-0.19
2023-01-25T22:52:57.704Z,-0.11
2023-01-25T22:55:26.373Z,-0.14
2023-01-25T22:57:56.789Z,-0.11
2023-01-25T23:00:25.701Z,-0.04
2023-01-25T23:02:54.278Z,-0.09
2023-01-25T23:05:22.931Z,-0.13
2023-01-25T23:07:51.561Z,-0.20
2023-01-25T23:10:20.405Z,-0.23
2023-01-25T23:12:49.102Z,-0.10
2023-01-25T23:15:17.935Z,-0.19
2023-01-25T23:18:04.193Z,-0.13
2023-01-25T23:20:36.148Z,-0.10
2023-01-25T23:23:05.021Z,-0.11
2023-01-25T23:25:36.656Z,-0.07
2023-01-25T23:28:05.475Z,-0.10
2023-01-25T23:30:35.434Z,-0.14
2023-01-25T23:33:07.698Z,-0.17
2023-01-25T23:35:39.183Z,-0.11
2023-01-25T23:38:08.884Z,-0.05
2023-01-25T23:40:39.101Z,-0.09
2023-01-25T23:43:07.784Z,-0.07
